Time;durP1;ratioP1;P1;durP2;ratioP2;P2;SDS_P1;SDS_P2;PMS_P1;PMS_P2;Temp;Humidity;BMP_temperature;BMP_pressure;BME280_temperature;BME280_humidity;BME280_pressure;Samples;Min_cycle;Max_cycle;Signal;HPM_P1;HPM_P2
2023/10/17 00:01:32;;;;;;;2.30;2.17;;;;;;;;;;4953830;28;20273;-84
2023/10/17 00:04:09;;;;;;;2.53;1.70;;;;;;;;;;4952842;29;20214;-84
2023/10/17 00:06:37;;;;;;;1.53;1.43;;;;;;;;;;4953211;29;20253;-83
2023/10/17 00:09:07;;;;;;;3.33;2.23;;;;;;;;;;4953489;29;20206;-84
2023/10/17 00:11:50;;;;;;;2.13;1.93;;;;;;;;;;4952570;28;20202;-84
2023/10/17 00:14:18;;;;;;;1.57;1.57;;;;;;;;;;4953185;29;20284;-83
2023/10/17 00:16:47;;;;;;;4.87;1.33;;;;;;;;;;4952567;29;20684;-83
2023/10/17 00:19:18;;;;;;;1.63;1.53;;;;;;;;;;4952844;29;20205;-84
2023/10/17 00:21:49;;;;;;;2.60;1.70;;;;;;;;;;4953293;29;20213;-83
2023/10/17 00:24:19;;;;;;;1.20;1.20;;;;;;;;;;4953038;29;20217;-83
2023/10/17 00:26:49;;;;;;;1.53;1.43;;;;;;;;;;4953069;29;20207;-84
2023/10/17 00:29:18;;;;;;;2.53;1.27;;;;;;;;;;4952851;29;20706;-84
2023/10/17 00:31:47;;;;;;;3.73;1.60;;;;;;;;;;4952766;29;20222;-83
2023/10/17 00:34:21;;;;;;;1.60;1.50;;;;;;;;;;4952882;28;20728;-83
2023/10/17 00:36:49;;;;;;;1.37;1.27;;;;;;;;;;4953240;29;20198;-83
2023/10/17 00:39:29;;;;;;;26.10;13.07;;;;;;;;;;4953752;28;20684;-84
2023/10/17 00:44:41;;;;;;;1.37;1.33;;;;;;;;;;4969652;29;20199;-83
2023/10/17 00:47:11;;;;;;;7.60;1.60;;;;;;;;;;4972601;29;20269;-83
2023/10/17 00:49:44;;;;;;;1.73;1.63;;;;;;;;;;4964759;29;20689;-83
2023/10/17 00:52:20;;;;;;;1.10;1.10;;;;;;;;;;4958764;29;20656;-85
2023/10/17 00:54:51;;;;;;;6.63;1.33;;;;;;;;;;4957747;29;20220;-83
2023/10/17 00:57:19;;;;;;;1.30;1.30;;;;;;;;;;4957190;29;20289;-83
2023/10/17 00:59:50;;;;;;;0.67;0.67;;;;;;;;;;4956384;29;20680;-83
2023/10/17 01:02:21;;;;;;;0.80;0.80;;;;;;;;;;4957095;28;20594;-83
2023/10/17 01:04:49;;;;;;;1.77;1.07;;;;;;;;;;4956858;29;20203;-83
2023/10/17 01:07:30;;;;;;;2.30;1.50;;;;;;;;;;4956182;29;20751;-83
2023/10/17 01:10:10;;;;;;;0.90;0.90;;;;;;;;;;4957365;29;20271;-82
2023/10/17 01:12:52;;;;;;;1.10;1.00;;;;;;;;;;4958967;29;20195;-82
2023/10/17 01:15:20;;;;;;;9.17;1.37;;;;;;;;;;4962506;29;20211;-83
2023/10/17 01:17:48;;;;;;;1.27;0.80;;;;;;;;;;4963300;29;20210;-83
2023/10/17 01:20:19;;;;;;;0.93;0.93;;;;;;;;;;4971393;29;20234;-83
2023/10/17 01:22:49;;;;;;;1.67;1.57;;;;;;;;;;4963935;29;20218;-84
2023/10/17 01:25:25;;;;;;;1.10;0.93;;;;;;;;;;4956219;29;20238;-83
2023/10/17 01:27:53;;;;;;;2.73;0.97;;;;;;;;;;4956031;29;20699;-83
2023/10/17 01:30:22;;;;;;;1.13;0.97;;;;;;;;;;4938284;29;20210;-83
2023/10/17 01:32:51;;;;;;;2.57;1.00;;;;;;;;;;4955752;28;20202;-84
2023/10/17 01:35:19;;;;;;;0.70;0.70;;;;;;;;;;4955187;29;20676;-83
2023/10/17 01:37:48;;;;;;;3.50;1.53;;;;;;;;;;4955852;29;20217;-84
2023/10/17 01:40:22;;;;;;;1.33;1.23;;;;;;;;;;4955310;29;20333;-84
2023/10/17 01:42:52;;;;;;;1.70;1.27;;;;;;;;;;4955653;29;20210;-83
2023/10/17 01:45:25;;;;;;;0.83;0.83;;;;;;;;;;4955390;29;20209;-84
2023/10/17 01:47:55;;;;;;;0.70;0.70;;;;;;;;;;4955409;29;20233;-83
2023/10/17 01:50:24;;;;;;;1.60;1.50;;;;;;;;;;4955148;28;20586;-82
2023/10/17 01:52:59;;;;;;;0.50;0.50;;;;;;;;;;4954597;29;20202;-83
2023/10/17 01:55:28;;;;;;;0.97;0.77;;;;;;;;;;4966457;28;20205;-83
2023/10/17 01:57:58;;;;;;;0.80;0.80;;;;;;;;;;4974100;28;20237;-83
2023/10/17 02:00:37;;;;;;;2.90;1.23;;;;;;;;;;4962074;28;20210;-85
2023/10/17 02:03:05;;;;;;;1.07;1.07;;;;;;;;;;4973370;28;20320;-84
2023/10/17 02:05:34;;;;;;;1.40;1.40;;;;;;;;;;4974261;28;20213;-85
2023/10/17 02:08:02;;;;;;;0.90;0.90;;;;;;;;;;4973471;28;20273;-85
2023/10/17 02:10:33;;;;;;;1.70;1.40;;;;;;;;;;4974316;28;20295;-84
2023/10/17 02:13:04;;;;;;;0.93;0.90;;;;;;;;;;4973889;28;20237;-84
2023/10/17 02:15:34;;;;;;;1.17;1.17;;;;;;;;;;4973302;28;20190;-83
2023/10/17 02:18:12;;;;;;;1.23;1.10;;;;;;;;;;4973715;28;20579;-83
2023/10/17 02:20:51;;;;;;;2.27;0.50;;;;;;;;;;4974038;28;20289;-82
2023/10/17 02:23:25;;;;;;;0.57;0.57;;;;;;;;;;4973796;28;20209;-84
2023/10/17 02:25:54;;;;;;;1.27;1.07;;;;;;;;;;4973857;28;20225;-83
2023/10/17 02:28:24;;;;;;;1.47;0.77;;;;;;;;;;4973785;28;20251;-84
2023/10/17 02:30:58;;;;;;;1.20;1.20;;;;;;;;;;4976234;28;20206;-83
2023/10/17 02:33:28;;;;;;;1.83;1.30;;;;;;;;;;4980427;28;20268;-85
2023/10/17 02:36:06;;;;;;;3.33;0.90;;;;;;;;;;4993785;28;20224;-84
2023/10/17 02:38:36;;;;;;;1.90;1.37;;;;;;;;;;4993013;28;20292;-83
2023/10/17 02:41:05;;;;;;;0.67;0.67;;;;;;;;;;4954352;29;20715;-83
2023/10/17 02:43:37;;;;;;;0.90;0.90;;;;;;;;;;4953375;29;20232;-83
2023/10/17 02:46:05;;;;;;;1.40;1.30;;;;;;;;;;4954848;29;20210;-83
2023/10/17 02:48:40;;;;;;;0.53;0.53;;;;;;;;;;4965538;28;20222;-81
2023/10/17 02:51:23;;;;;;;1.90;1.10;;;;;;;;;;4977439;28;20203;-83
2023/10/17 02:53:58;;;;;;;2.90;1.37;;;;;;;;;;4955329;29;20199;-84
2023/10/17 02:56:26;;;;;;;1.50;1.40;;;;;;;;;;4955251;29;20198;-84
2023/10/17 02:59:06;;;;;;;1.10;1.10;;;;;;;;;;4953979;29;20207;-84
2023/10/17 03:01:38;;;;;;;1.00;0.97;;;;;;;;;;4954519;28;20222;-83
2023/10/17 03:04:10;;;;;;;0.73;0.73;;;;;;;;;;4954952;29;20198;-83
2023/10/17 03:06:39;;;;;;;1.90;1.50;;;;;;;;;;4955512;29;20195;-83
2023/10/17 03:12:23;;;;;;;2.40;1.03;;;;;;;;;;5090064;27;20322;-83
2023/10/17 03:17:36;;;;;;;1.30;1.23;;;;;;;;;;5070040;28;20554;-84
2023/10/17 03:20:09;;;;;;;1.37;1.37;;;;;;;;;;5068622;28;20286;-83
2023/10/17 03:22:37;;;;;;;1.37;1.27;;;;;;;;;;5068484;28;20194;-83
2023/10/17 03:25:18;;;;;;;2.17;1.40;;;;;;;;;;5068469;28;20796;-83
2023/10/17 03:27:49;;;;;;;1.50;1.40;;;;;;;;;;5071327;28;20587;-83
2023/10/17 03:30:19;;;;;;;1.20;1.10;;;;;;;;;;5068239;28;20234;-83
2023/10/17 03:33:05;;;;;;;1.47;1.40;;;;;;;;;;5070023;28;20745;-83
2023/10/17 03:35:35;;;;;;;4.90;1.87;;;;;;;;;;5068811;28;20202;-83
2023/10/17 03:38:02;;;;;;;3.77;1.30;;;;;;;;;;5068563;28;20203;-84
2023/10/17 03:40:36;;;;;;;2.07;1.83;;;;;;;;;;5068155;28;20271;-83
2023/10/17 03:43:12;;;;;;;6.90;1.67;;;;;;;;;;5067999;28;20270;-82
2023/10/17 03:45:56;;;;;;;2.33;1.50;;;;;;;;;;5071563;28;20572;-82
2023/10/17 03:48:29;;;;;;;1.07;0.97;;;;;;;;;;5067815;28;20261;-83
2023/10/17 03:51:10;;;;;;;2.50;2.23;;;;;;;;;;5063359;28;20222;-83
2023/10/17 03:53:46;;;;;;;2.17;2.00;;;;;;;;;;5058636;28;20448;-83
2023/10/17 03:56:23;;;;;;;1.87;1.40;;;;;;;;;;5080364;28;20280;-84
2023/10/17 03:58:57;;;;;;;1.50;1.40;;;;;;;;;;5077241;28;20202;-83
2023/10/17 04:01:28;;;;;;;8.20;1.40;;;;;;;;;;5044884;28;20220;-84
2023/10/17 04:04:02;;;;;;;1.27;1.17;;;;;;;;;;5028328;28;20200;-83
2023/10/17 04:06:38;;;;;;;1.80;1.70;;;;;;;;;;5028317;28;20203;-85
2023/10/17 04:11:58;;;;;;;4.33;1.47;;;;;;;;;;5027562;28;20691;-84
2023/10/17 04:14:33;;;;;;;2.30;1.60;;;;;;;;;;5027425;28;20202;-83
2023/10/17 04:17:02;;;;;;;1.70;1.60;;;;;;;;;;5028225;28;20206;-83
2023/10/17 04:19:42;;;;;;;6.37;1.20;;;;;;;;;;5029981;28;20255;-83
2023/10/17 04:22:20;;;;;;;6.10;2.30;;;;;;;;;;5024136;28;20200;-83
2023/10/17 04:24:51;;;;;;;3.43;2.73;;;;;;;;;;5020256;28;20212;-83
2023/10/17 04:27:23;;;;;;;2.20;2.00;;;;;;;;;;5021631;28;20473;-82
2023/10/17 04:29:59;;;;;;;2.30;1.97;;;;;;;;;;5022232;28;20298;-82
2023/10/17 04:32:38;;;;;;;1.33;1.23;;;;;;;;;;5024592;28;20235;-83
2023/10/17 04:35:07;;;;;;;9.57;2.33;;;;;;;;;;5023830;28;20200;-82
2023/10/17 04:37:37;;;;;;;9.00;3.87;;;;;;;;;;5006455;28;20283;-83
2023/10/17 04:43:43;;;;;;;2.80;2.47;;;;;;;;;;5021262;28;20273;-83
2023/10/17 04:46:01;;;;;;;8.30;2.70;;;;;;;;;;5023848;28;20291;-82
2023/10/17 04:48:35;;;;;;;7.67;5.07;;;;;;;;;;5033385;28;20219;-83
2023/10/17 04:51:24;;;;;;;5.47;3.67;;;;;;;;;;5023069;28;20736;-85
2023/10/17 04:54:03;;;;;;;2.73;1.33;;;;;;;;;;5019017;28;20204;-84
2023/10/17 04:56:52;;;;;;;2.23;2.07;;;;;;;;;;5022982;28;20193;-84
2023/10/17 04:59:41;;;;;;;4.67;1.77;;;;;;;;;;5023552;28;20220;-83
2023/10/17 06:16:54;;;;;;;3.77;2.60;;;;;;;;;;4909884;29;20204;-84
2023/10/17 06:19:24;;;;;;;2.78;2.28;;;;;;;;;;4906642;29;20206;-84
2023/10/17 06:26:02;;;;;;;3.63;1.83;;;;;;;;;;4903529;29;20211;-85
2023/10/17 06:30:34;;;;;;;2.25;1.48;;;;;;;;;;4884793;29;20214;-85
2023/10/17 06:33:21;;;;;;;1.33;1.33;;;;;;;;;;4914334;29;20243;-85
2023/10/17 06:35:52;;;;;;;4.10;1.73;;;;;;;;;;4918291;29;20667;-84
2023/10/17 06:38:19;;;;;;;1.67;1.57;;;;;;;;;;4919738;29;20186;-84
2023/10/17 06:41:11;;;;;;;2.20;1.10;;;;;;;;;;4933314;29;20219;-84
2023/10/17 06:43:40;;;;;;;2.90;1.10;;;;;;;;;;4939872;29;20215;-84
2023/10/17 06:46:12;;;;;;;2.57;1.60;;;;;;;;;;4938220;29;20214;-84
2023/10/17 06:48:49;;;;;;;0.97;0.97;;;;;;;;;;4930950;29;20212;-85
2023/10/17 06:51:35;;;;;;;1.20;1.20;;;;;;;;;;4914059;29;20749;-83
2023/10/17 06:54:13;;;;;;;2.40;1.30;;;;;;;;;;4900764;29;20252;-85
2023/10/17 06:56:41;;;;;;;1.00;1.00;;;;;;;;;;4905696;29;20573;-85
2023/10/17 07:04:40;;;;;;;2.33;1.50;;;;;;;;;;4895688;29;20247;-86
2023/10/17 07:07:09;;;;;;;1.10;1.10;;;;;;;;;;4897536;29;20240;-84
2023/10/17 07:09:42;;;;;;;2.23;1.43;;;;;;;;;;4895321;29;20694;-85
2023/10/17 07:12:15;;;;;;;0.70;0.70;;;;;;;;;;4897629;29;20264;-87
2023/10/17 07:14:51;;;;;;;7.93;0.90;;;;;;;;;;4896912;29;20536;-86
2023/10/17 07:17:28;;;;;;;3.93;1.80;;;;;;;;;;4896518;29;20231;-85
2023/10/17 07:20:12;;;;;;;1.20;1.20;;;;;;;;;;4892795;29;20722;-85
2023/10/17 07:22:53;;;;;;;0.70;0.70;;;;;;;;;;4897371;29;20251;-87
2023/10/17 07:25:25;;;;;;;3.00;0.97;;;;;;;;;;4894996;29;20224;-86
2023/10/17 07:27:57;;;;;;;0.90;0.90;;;;;;;;;;4896680;29;20228;-86
2023/10/17 07:30:35;;;;;;;1.17;1.10;;;;;;;;;;4892272;29;20232;-85
2023/10/17 07:33:11;;;;;;;0.80;0.80;;;;;;;;;;4895593;29;20250;-86
2023/10/17 07:35:44;;;;;;;1.20;1.20;;;;;;;;;;4894911;29;20296;-86
2023/10/17 07:38:14;;;;;;;0.80;0.80;;;;;;;;;;4880721;29;20279;-86
2023/10/17 07:40:57;;;;;;;1.97;1.10;;;;;;;;;;4895803;29;20224;-85
2023/10/17 07:43:32;;;;;;;1.00;1.00;;;;;;;;;;4896049;29;20327;-85
2023/10/17 07:46:15;;;;;;;0.90;0.90;;;;;;;;;;4896304;29;20234;-85
2023/10/17 07:48:48;;;;;;;4.83;0.90;;;;;;;;;;4900494;29;20706;-84
2023/10/17 07:51:16;;;;;;;0.40;0.40;;;;;;;;;;4909497;29;20244;-84
2023/10/17 07:53:47;;;;;;;1.40;1.03;;;;;;;;;;4895222;29;20229;-85
2023/10/17 07:56:24;;;;;;;1.87;1.27;;;;;;;;;;4908716;29;20300;-84
2023/10/17 07:59:04;;;;;;;4.27;0.80;;;;;;;;;;4915090;29;20322;-84
2023/10/17 08:01:42;;;;;;;1.07;1.07;;;;;;;;;;4914516;29;20239;-84
2023/10/17 08:04:17;;;;;;;5.27;1.07;;;;;;;;;;4897796;29;20228;-84
2023/10/17 08:06:46;;;;;;;0.90;0.90;;;;;;;;;;4898314;29;20232;-85
2023/10/17 08:09:24;;;;;;;0.83;0.83;;;;;;;;;;4897859;29;20246;-84
2023/10/17 08:11:54;;;;;;;2.40;1.63;;;;;;;;;;4886817;29;20247;-84
2023/10/17 08:14:31;;;;;;;1.10;1.00;;;;;;;;;;4887785;29;20232;-83
2023/10/17 08:17:05;;;;;;;4.77;0.83;;;;;;;;;;4877767;29;20714;-84
2023/10/17 08:20:00;;;;;;;1.50;1.00;;;;;;;;;;4895107;29;20235;-84
2023/10/17 08:22:25;;;;;;;0.60;0.60;;;;;;;;;;4897795;29;20244;-84
2023/10/17 08:24:57;;;;;;;0.70;0.70;;;;;;;;;;4897339;29;20615;-84
2023/10/17 08:30:16;;;;;;;0.67;0.67;;;;;;;;;;4895487;29;20240;-84
2023/10/17 08:32:55;;;;;;;2.20;1.00;;;;;;;;;;4895591;29;20247;-84
2023/10/17 08:35:36;;;;;;;1.00;1.00;;;;;;;;;;4878965;29;20229;-85
2023/10/17 08:38:06;;;;;;;1.60;0.93;;;;;;;;;;4878615;29;20225;-84
2023/10/17 08:40:40;;;;;;;1.00;1.00;;;;;;;;;;4880232;29;20237;-84
2023/10/17 08:43:11;;;;;;;4.33;0.77;;;;;;;;;;4880138;29;20708;-85
2023/10/17 08:45:40;;;;;;;3.70;0.70;;;;;;;;;;4881796;29;20240;-84
2023/10/17 08:48:11;;;;;;;1.10;0.90;;;;;;;;;;4891390;29;20229;-84
2023/10/17 08:50:45;;;;;;;0.70;0.60;;;;;;;;;;4899784;29;20302;-85
2023/10/17 08:53:19;;;;;;;10.40;1.13;;;;;;;;;;4896013;29;20263;-84
2023/10/17 08:55:50;;;;;;;0.80;0.80;;;;;;;;;;4896366;29;20314;-83
2023/10/17 08:58:24;;;;;;;2.87;1.10;;;;;;;;;;4878203;29;20225;-84
2023/10/17 09:03:38;;;;;;;0.97;0.97;;;;;;;;;;4883621;29;20299;-86
2023/10/17 09:08:55;;;;;;;1.43;1.23;;;;;;;;;;4895591;29;20227;-84
2023/10/17 09:11:33;;;;;;;0.90;0.90;;;;;;;;;;4897516;29;20363;-85
2023/10/17 09:14:15;;;;;;;1.37;1.30;;;;;;;;;;4897294;29;20228;-85
2023/10/17 09:16:50;;;;;;;0.80;0.80;;;;;;;;;;4905393;29;20243;-84
2023/10/17 09:19:25;;;;;;;0.93;0.80;;;;;;;;;;4912505;29;20296;-84
2023/10/17 09:21:59;;;;;;;1.63;1.53;;;;;;;;;;4902145;29;20263;-84
2023/10/17 09:24:36;;;;;;;0.90;0.80;;;;;;;;;;4896316;29;20271;-84
2023/10/17 09:27:12;;;;;;;1.80;1.00;;;;;;;;;;4896943;29;20231;-85
2023/10/17 09:29:47;;;;;;;0.93;0.93;;;;;;;;;;4897105;29;20235;-85
2023/10/17 09:32:34;;;;;;;1.07;1.07;;;;;;;;;;4895889;29;20291;-85
2023/10/17 09:35:10;;;;;;;0.67;0.67;;;;;;;;;;4896204;29;20266;-84
2023/10/17 09:37:41;;;;;;;1.33;1.23;;;;;;;;;;4896798;29;20242;-85
2023/10/17 09:40:14;;;;;;;3.57;1.30;;;;;;;;;;4895394;29;20233;-84
2023/10/17 09:42:44;;;;;;;1.40;1.27;;;;;;;;;;4897008;29;20322;-84
2023/10/17 09:45:13;;;;;;;1.90;1.00;;;;;;;;;;4896531;29;20227;-84
2023/10/17 09:47:44;;;;;;;1.30;1.20;;;;;;;;;;4896968;29;20232;-86
2023/10/17 09:50:19;;;;;;;0.73;0.73;;;;;;;;;;4896415;29;20259;-87
2023/10/17 09:52:51;;;;;;;0.77;0.77;;;;;;;;;;4896815;29;20244;-85
2023/10/17 09:55:20;;;;;;;0.57;0.57;;;;;;;;;;4892046;29;20221;-86
2023/10/17 09:57:52;;;;;;;4.40;1.17;;;;;;;;;;4897550;29;20230;-86
2023/10/17 10:00:27;;;;;;;1.80;1.10;;;;;;;;;;4895867;29;20254;-87
2023/10/17 10:02:57;;;;;;;3.13;1.00;;;;;;;;;;4895612;29;20291;-84
2023/10/17 10:05:29;;;;;;;1.20;1.20;;;;;;;;;;4880537;29;20239;-86
2023/10/17 10:07:57;;;;;;;7.63;1.43;;;;;;;;;;4895963;29;20228;-86
2023/10/17 10:10:44;;;;;;;5.10;1.33;;;;;;;;;;4895978;29;20227;-86
2023/10/17 10:13:15;;;;;;;1.80;1.00;;;;;;;;;;4895405;29;20260;-87
2023/10/17 10:15:54;;;;;;;9.97;1.40;;;;;;;;;;4895370;29;20732;-85
2023/10/17 10:18:54;;;;;;;9.63;1.13;;;;;;;;;;4894799;29;20297;-86
2023/10/17 10:21:49;;;;;;;0.60;0.60;;;;;;;;;;4893446;29;20230;-87
2023/10/17 10:24:20;;;;;;;1.03;1.03;;;;;;;;;;4895061;29;20221;-84
2023/10/17 10:26:51;;;;;;;0.90;0.90;;;;;;;;;;4893867;29;20862;-84
2023/10/17 10:29:24;;;;;;;5.77;1.00;;;;;;;;;;4895020;29;20233;-87
2023/10/17 10:31:57;;;;;;;1.03;1.03;;;;;;;;;;4883424;29;20272;-84
2023/10/17 10:34:26;;;;;;;0.77;0.77;;;;;;;;;;4894948;29;20245;-85
2023/10/17 10:36:59;;;;;;;3.57;1.20;;;;;;;;;;4894406;29;20228;-84
2023/10/17 10:39:35;;;;;;;2.23;1.13;;;;;;;;;;4895436;29;20220;-85
2023/10/17 10:42:06;;;;;;;0.60;0.60;;;;;;;;;;4892958;29;20320;-86
2023/10/17 10:44:41;;;;;;;1.93;1.30;;;;;;;;;;4894090;29;20216;-85
2023/10/17 10:47:13;;;;;;;0.97;0.97;;;;;;;;;;4892688;29;20331;-85
2023/10/17 10:49:43;;;;;;;1.70;1.60;;;;;;;;;;4894964;29;20243;-85
2023/10/17 10:52:13;;;;;;;7.23;1.40;;;;;;;;;;4886120;29;20666;-84
2023/10/17 10:54:59;;;;;;;2.53;1.73;;;;;;;;;;4895018;29;20314;-85
2023/10/17 10:57:35;;;;;;;0.90;0.90;;;;;;;;;;4891383;29;20331;-84
2023/10/17 11:00:07;;;;;;;0.93;0.93;;;;;;;;;;4894103;29;20262;-83
2023/10/17 11:02:36;;;;;;;0.90;0.90;;;;;;;;;;4892985;29;20228;-83
2023/10/17 11:05:04;;;;;;;1.37;1.37;;;;;;;;;;4897549;29;20294;-85
2023/10/17 11:07:36;;;;;;;0.93;0.93;;;;;;;;;;4892778;29;20348;-84
2023/10/17 11:10:13;;;;;;;1.00;1.00;;;;;;;;;;4894311;29;20245;-84
2023/10/17 11:12:43;;;;;;;0.73;0.73;;;;;;;;;;4892608;29;20283;-85
2023/10/17 11:15:14;;;;;;;3.47;1.20;;;;;;;;;;4893863;29;20302;-85
2023/10/17 11:17:43;;;;;;;2.27;1.40;;;;;;;;;;4905183;29;20605;-85
2023/10/17 11:20:20;;;;;;;0.93;0.93;;;;;;;;;;4892714;29;20238;-85
2023/10/17 11:22:50;;;;;;;2.17;1.10;;;;;;;;;;4900803;29;20703;-86
2023/10/17 11:25:27;;;;;;;2.13;0.97;;;;;;;;;;4913059;29;21217;-85
2023/10/17 11:27:56;;;;;;;0.90;0.90;;;;;;;;;;4912139;29;20233;-85
2023/10/17 11:30:32;;;;;;;4.10;1.30;;;;;;;;;;4912538;29;20314;-85
2023/10/17 11:33:05;;;;;;;2.23;1.43;;;;;;;;;;4912536;29;20340;-85
2023/10/17 11:35:34;;;;;;;1.33;1.20;;;;;;;;;;4898627;29;20234;-85
2023/10/17 11:38:07;;;;;;;3.63;1.30;;;;;;;;;;4895546;29;20237;-85
2023/10/17 11:40:43;;;;;;;1.33;1.20;;;;;;;;;;4900112;29;20319;-84
2023/10/17 11:43:28;;;;;;;1.27;1.20;;;;;;;;;;4915871;29;20224;-86
2023/10/17 11:46:00;;;;;;;2.23;1.17;;;;;;;;;;4921575;29;20235;-88
2023/10/17 11:48:36;;;;;;;7.20;1.37;;;;;;;;;;4919863;29;20240;-86
2023/10/17 11:51:07;;;;;;;2.23;1.30;;;;;;;;;;4900057;29;20610;-85
2023/10/17 11:53:38;;;;;;;2.87;1.67;;;;;;;;;;4896829;29;20251;-86
2023/10/17 11:56:09;;;;;;;1.80;1.70;;;;;;;;;;4898635;29;20459;-85
2023/10/17 11:58:38;;;;;;;1.20;1.20;;;;;;;;;;4897918;29;20234;-87
2023/10/17 12:01:05;;;;;;;2.63;0.80;;;;;;;;;;4897783;29;20302;-86
2023/10/17 12:03:35;;;;;;;2.30;1.50;;;;;;;;;;4898650;29;20295;-85
2023/10/17 12:06:02;;;;;;;1.57;1.20;;;;;;;;;;4897842;29;20232;-86
2023/10/17 12:08:31;;;;;;;1.40;1.07;;;;;;;;;;4898921;29;20229;-87
2023/10/17 12:10:58;;;;;;;2.00;1.47;;;;;;;;;;4897658;29;20293;-85
2023/10/17 12:13:27;;;;;;;4.73;1.20;;;;;;;;;;4878585;29;20634;-85
2023/10/17 12:16:02;;;;;;;8.13;1.20;;;;;;;;;;4879533;29;20233;-84
2023/10/17 12:18:29;;;;;;;1.40;1.20;;;;;;;;;;4879891;29;20229;-85
2023/10/17 12:21:01;;;;;;;2.23;1.20;;;;;;;;;;4888293;29;20612;-85
2023/10/17 12:23:30;;;;;;;4.10;1.67;;;;;;;;;;4886267;29;20320;-86
2023/10/17 12:26:26;;;;;;;3.67;1.77;;;;;;;;;;4905822;29;20240;-86
2023/10/17 12:29:12;;;;;;;1.73;1.57;;;;;;;;;;4898971;29;20226;-86
2023/10/17 12:37:45;;;;;;;0.73;0.73;;;;;;;;;;4908085;29;20570;-84
2023/10/17 12:40:19;;;;;;;5.57;1.53;;;;;;;;;;4903784;29;20295;-86
2023/10/17 12:42:51;;;;;;;2.23;1.13;;;;;;;;;;4910671;29;20780;-86
2023/10/17 12:45:25;;;;;;;1.03;1.03;;;;;;;;;;4883405;29;20237;-86
2023/10/17 12:47:58;;;;;;;1.00;0.97;;;;;;;;;;4881494;29;20236;-85
2023/10/17 12:50:27;;;;;;;1.10;1.00;;;;;;;;;;4877532;29;20233;-87
2023/10/17 12:52:55;;;;;;;1.07;1.07;;;;;;;;;;4878877;29;20248;-87
2023/10/17 12:55:21;;;;;;;3.27;1.07;;;;;;;;;;4878991;29;20225;-86
2023/10/17 12:57:51;;;;;;;0.90;0.90;;;;;;;;;;4879204;29;20314;-86
2023/10/17 13:00:25;;;;;;;3.60;1.47;;;;;;;;;;4880393;29;20213;-87
2023/10/17 13:03:00;;;;;;;1.53;1.10;;;;;;;;;;4881751;29;20220;-86
2023/10/17 13:05:27;;;;;;;1.90;0.97;;;;;;;;;;4896827;29;20271;-87
2023/10/17 13:07:56;;;;;;;5.23;1.37;;;;;;;;;;4913857;29;20213;-86
2023/10/17 13:10:30;;;;;;;1.93;1.67;;;;;;;;;;4914842;29;20205;-86
2023/10/17 13:12:59;;;;;;;7.17;1.33;;;;;;;;;;4901430;29;20239;-88
2023/10/17 13:15:28;;;;;;;0.70;0.70;;;;;;;;;;4898947;29;20291;-85
2023/10/17 13:18:03;;;;;;;3.60;0.90;;;;;;;;;;4898593;29;20295;-85
2023/10/17 13:20:32;;;;;;;2.10;1.30;;;;;;;;;;4899435;29;20291;-87
2023/10/17 13:23:03;;;;;;;1.57;1.47;;;;;;;;;;4899846;29;20205;-87
2023/10/17 13:25:35;;;;;;;25.47;1.83;;;;;;;;;;4899456;29;20284;-86
2023/10/17 13:28:04;;;;;;;4.30;1.00;;;;;;;;;;4899860;29;20197;-86
2023/10/17 13:30:33;;;;;;;0.90;0.90;;;;;;;;;;4901395;29;20193;-85
2023/10/17 13:33:06;;;;;;;1.10;1.10;;;;;;;;;;4907025;29;20252;-86
2023/10/17 13:35:37;;;;;;;0.87;0.87;;;;;;;;;;4901122;29;20284;-85
2023/10/17 13:38:05;;;;;;;0.73;0.73;;;;;;;;;;4899310;29;20209;-86
2023/10/17 13:40:34;;;;;;;1.37;1.27;;;;;;;;;;4898161;29;20203;-86
2023/10/17 13:43:04;;;;;;;4.97;1.30;;;;;;;;;;4898810;29;20725;-87
2023/10/17 13:45:39;;;;;;;4.10;1.27;;;;;;;;;;4898075;29;20200;-86
2023/10/17 13:48:09;;;;;;;0.90;0.90;;;;;;;;;;4895928;29;20225;-87
2023/10/17 13:50:37;;;;;;;0.93;0.93;;;;;;;;;;4898903;29;20236;-85
2023/10/17 13:53:16;;;;;;;1.20;1.00;;;;;;;;;;4899190;29;20288;-86
2023/10/17 13:55:52;;;;;;;3.53;1.83;;;;;;;;;;4897550;29;20228;-87
2023/10/17 13:58:19;;;;;;;1.20;1.20;;;;;;;;;;4897508;29;20283;-86
2023/10/17 14:00:51;;;;;;;0.97;0.93;;;;;;;;;;4903664;29;20319;-85
2023/10/17 14:03:23;;;;;;;0.77;0.63;;;;;;;;;;4892562;29;20261;-87
2023/10/17 14:05:57;;;;;;;2.08;1.70;;;;;;;;;;4884685;29;20550;-86
2023/10/17 14:08:34;;;;;;;1.43;1.13;;;;;;;;;;4862700;29;20624;-85
2023/10/17 14:11:06;;;;;;;3.40;1.17;;;;;;;;;;4859738;29;20241;-85
2023/10/17 14:13:38;;;;;;;1.07;1.00;;;;;;;;;;4859699;29;20265;-84
2023/10/17 14:16:05;;;;;;;0.77;0.77;;;;;;;;;;4859602;29;20226;-87
2023/10/17 14:18:43;;;;;;;1.10;1.10;;;;;;;;;;4859134;29;20242;-87
2023/10/17 14:24:06;;;;;;;1.37;1.07;;;;;;;;;;4856721;29;20230;-86
2023/10/17 14:26:37;;;;;;;1.10;1.10;;;;;;;;;;4859525;29;20647;-84
2023/10/17 14:29:03;;;;;;;1.30;0.80;;;;;;;;;;4860728;29;20232;-85
2023/10/17 14:31:33;;;;;;;1.10;1.10;;;;;;;;;;4861619;29;20229;-86
2023/10/17 14:34:02;;;;;;;1.50;1.40;;;;;;;;;;4877178;29;20246;-85
2023/10/17 14:36:31;;;;;;;3.97;1.37;;;;;;;;;;4873648;29;20225;-84
2023/10/17 14:39:09;;;;;;;1.00;1.00;;;;;;;;;;4883504;29;20288;-84
2023/10/17 14:41:40;;;;;;;1.53;1.40;;;;;;;;;;4894576;29;20225;-85
2023/10/17 14:44:11;;;;;;;1.83;1.73;;;;;;;;;;4898370;29;20244;-85
2023/10/17 14:46:43;;;;;;;3.73;1.50;;;;;;;;;;4900841;29;20244;-85
2023/10/17 14:49:13;;;;;;;3.40;1.40;;;;;;;;;;4891852;29;20313;-84
2023/10/17 14:51:42;;;;;;;1.70;1.47;;;;;;;;;;4877622;29;20316;-85
2023/10/17 14:54:13;;;;;;;3.07;1.83;;;;;;;;;;4879158;29;20240;-85
2023/10/17 14:56:44;;;;;;;2.53;1.30;;;;;;;;;;4880349;29;20281;-85
2023/10/17 14:59:17;;;;;;;5.67;2.00;;;;;;;;;;4883049;29;20225;-85
2023/10/17 15:01:47;;;;;;;1.73;1.40;;;;;;;;;;4878545;29;20236;-84
2023/10/17 15:04:17;;;;;;;1.80;1.80;;;;;;;;;;4876935;29;20336;-85
2023/10/17 15:06:45;;;;;;;4.23;1.63;;;;;;;;;;4875751;29;20677;-85
2023/10/17 15:09:21;;;;;;;2.17;1.97;;;;;;;;;;4882629;29;20247;-86
2023/10/17 15:28:15;;;;;;;5.00;2.10;;;;;;;;;;4775218;23;20244;-85
2023/10/17 15:30:46;;;;;;;1.40;1.40;;;;;;;;;;4921773;29;20239;-85
2023/10/17 15:33:14;;;;;;;3.40;1.60;;;;;;;;;;4923314;29;20247;-86
2023/10/17 15:35:45;;;;;;;1.00;1.00;;;;;;;;;;4932343;29;20235;-85
2023/10/17 15:38:14;;;;;;;2.20;1.63;;;;;;;;;;4928989;29;20247;-86
2023/10/17 15:40:43;;;;;;;2.33;1.63;;;;;;;;;;4919434;29;20227;-84
2023/10/17 15:43:13;;;;;;;1.13;1.03;;;;;;;;;;4918265;29;20745;-84
2023/10/17 15:45:52;;;;;;;2.27;0.90;;;;;;;;;;4919707;29;20224;-84
2023/10/17 15:48:20;;;;;;;1.27;1.17;;;;;;;;;;4916745;29;20231;-85
2023/10/17 15:50:49;;;;;;;1.53;1.53;;;;;;;;;;4916554;29;20292;-85
2023/10/17 15:53:19;;;;;;;1.33;1.33;;;;;;;;;;4915798;29;20220;-85
2023/10/17 15:55:54;;;;;;;0.73;0.73;;;;;;;;;;4914692;29;20232;-86
2023/10/17 15:58:21;;;;;;;1.23;1.13;;;;;;;;;;4911876;29;20643;-84
2023/10/17 16:00:56;;;;;;;2.33;1.17;;;;;;;;;;4915707;29;20331;-86
2023/10/17 16:03:23;;;;;;;0.97;0.80;;;;;;;;;;4915715;29;20633;-85
2023/10/17 16:05:56;;;;;;;2.57;1.20;;;;;;;;;;4916416;29;20311;-87
2023/10/17 16:08:24;;;;;;;1.37;1.10;;;;;;;;;;4914159;29;20278;-84
2023/10/17 16:10:53;;;;;;;0.73;0.73;;;;;;;;;;4915264;29;20365;-85
2023/10/17 16:13:26;;;;;;;0.80;0.80;;;;;;;;;;4912396;29;20268;-87
2023/10/17 16:15:59;;;;;;;1.10;1.10;;;;;;;;;;4915288;29;20739;-86
2023/10/17 16:18:30;;;;;;;0.60;0.60;;;;;;;;;;4879255;29;20813;-85
2023/10/17 16:20:57;;;;;;;1.17;0.90;;;;;;;;;;4882713;29;20233;-85
2023/10/17 16:23:24;;;;;;;0.67;0.67;;;;;;;;;;4881653;29;20240;-87
2023/10/17 16:25:58;;;;;;;1.10;0.83;;;;;;;;;;4883240;29;20293;-85
2023/10/17 16:28:28;;;;;;;1.33;0.70;;;;;;;;;;4881877;29;20237;-84
2023/10/17 16:36:31;;;;;;;1.10;1.10;;;;;;;;;;5017536;23;20256;-84
2023/10/17 16:39:07;;;;;;;0.60;0.60;;;;;;;;;;4911308;29;20208;-84
2023/10/17 16:41:37;;;;;;;2.10;1.17;;;;;;;;;;4898923;29;20693;-84
2023/10/17 16:44:05;;;;;;;0.67;0.50;;;;;;;;;;4912070;29;20200;-82
2023/10/17 16:46:34;;;;;;;1.83;0.67;;;;;;;;;;4912399;29;20211;-84
2023/10/17 16:49:02;;;;;;;0.73;0.73;;;;;;;;;;4914672;29;20678;-84
2023/10/17 16:51:53;;;;;;;0.67;0.67;;;;;;;;;;4915855;29;20200;-83
2023/10/17 16:54:22;;;;;;;1.03;0.73;;;;;;;;;;4921444;29;20217;-85
2023/10/17 16:56:49;;;;;;;0.60;0.60;;;;;;;;;;4922747;29;20193;-85
2023/10/17 16:59:19;;;;;;;1.40;1.03;;;;;;;;;;4922665;29;20192;-84
2023/10/17 17:01:48;;;;;;;1.30;1.20;;;;;;;;;;4928285;29;20224;-83
2023/10/17 17:04:18;;;;;;;0.87;0.40;;;;;;;;;;4941360;29;20227;-84
2023/10/17 17:06:49;;;;;;;0.70;0.70;;;;;;;;;;4935841;29;20215;-83
2023/10/17 17:09:27;;;;;;;1.20;0.90;;;;;;;;;;4919778;29;20211;-82
2023/10/17 17:11:54;;;;;;;1.13;1.03;;;;;;;;;;4916265;29;20199;-83
2023/10/17 17:14:23;;;;;;;0.70;0.70;;;;;;;;;;4916530;29;20370;-84
2023/10/17 17:16:53;;;;;;;0.97;0.97;;;;;;;;;;4916332;29;20227;-83
2023/10/17 17:19:20;;;;;;;1.03;1.03;;;;;;;;;;4915277;29;20204;-84
2023/10/17 17:21:50;;;;;;;1.23;1.13;;;;;;;;;;4919476;29;20665;-82
2023/10/17 17:24:18;;;;;;;0.97;0.80;;;;;;;;;;4915175;29;20235;-84
2023/10/17 17:26:46;;;;;;;1.63;1.53;;;;;;;;;;4914721;29;20199;-85
2023/10/17 17:29:16;;;;;;;2.10;1.33;;;;;;;;;;4915120;29;20204;-83
2023/10/17 17:31:43;;;;;;;1.60;1.27;;;;;;;;;;4916961;29;20219;-83
2023/10/17 17:34:11;;;;;;;1.67;1.57;;;;;;;;;;4916359;29;20222;-85
2023/10/17 17:36:40;;;;;;;3.77;2.20;;;;;;;;;;4918018;29;20298;-83